createdAt,value
2022-09-11T00:01:29.302Z,7.90
2022-09-11T00:03:56.586Z,7.30
2022-09-11T00:06:29.716Z,6.70
2022-09-11T00:09:03.194Z,7.18
2022-09-11T00:11:37.912Z,7.05
2022-09-11T00:14:04.986Z,7.57
2022-09-11T00:16:35.666Z,7.25
2022-09-11T00:19:06.666Z,7.20
2022-09-11T00:21:34.299Z,7.18
2022-09-11T00:24:01.554Z,7.03
2022-09-11T00:26:28.641Z,6.97
2022-09-11T00:28:56.176Z,6.90
2022-09-11T00:31:26.431Z,6.63
2022-09-11T00:33:54.064Z,6.72
2022-09-11T00:36:29.233Z,9.20
2022-09-11T00:38:56.534Z,7.63
2022-09-11T00:41:36.318Z,8.20
2022-09-11T00:44:28.506Z,7.75
2022-09-11T00:46:59.382Z,7.32
2022-09-11T00:49:28.354Z,7.25
2022-09-11T00:52:02.680Z,7.95
2022-09-11T00:54:33.404Z,7.63
2022-09-11T00:57:04.357Z,8.45
2022-09-11T00:59:33.022Z,8.35
2022-09-11T01:02:00.762Z,7.45
2022-09-11T01:04:29.335Z,7.97
2022-09-11T01:06:58.278Z,8.23
2022-09-11T01:09:30.569Z,9.70
2022-09-11T01:12:07.287Z,7.28
2022-09-11T01:14:54.993Z,9.23
2022-09-11T01:17:44.902Z,8.13
2022-09-11T01:20:30.437Z,7.80
2022-09-11T01:23:15.201Z,8.75
2022-09-11T01:25:54.366Z,9.07
2022-09-11T01:28:35.511Z,8.93
2022-09-11T01:31:08.714Z,9.30
2022-09-11T01:33:44.895Z,9.15
2022-09-11T01:36:22.820Z,9.57
2022-09-11T01:39:02.320Z,8.70
2022-09-11T01:41:46.186Z,8.88
2022-09-11T01:44:53.607Z,8.82
2022-09-11T01:47:22.112Z,7.32
2022-09-11T01:49:59.197Z,7.80
2022-09-11T01:52:34.709Z,7.78
2022-09-11T01:55:09.194Z,8.48
2022-09-11T01:57:45.824Z,7.80
2022-09-11T02:00:13.987Z,7.78
2022-09-11T02:02:49.897Z,8.15
2022-09-11T02:05:20.676Z,7.38
2022-09-11T02:07:58.844Z,7.43
2022-09-11T02:10:33.171Z,7.82
2022-09-11T02:13:11.893Z,8.23
2022-09-11T02:16:14.656Z,7.63
2022-09-11T02:19:23.947Z,7.25
2022-09-11T02:21:51.354Z,7.55
2022-09-11T02:24:19.913Z,6.47
2022-09-11T02:26:58.472Z,7.00
2022-09-11T02:29:26.700Z,6.40
2022-09-11T02:31:54.751Z,6.05
2022-09-11T02:34:29.885Z,6.45
2022-09-11T02:37:26.540Z,6.68
2022-09-11T02:40:07.157Z,6.22
2022-09-11T02:42:47.715Z,6.25
2022-09-11T02:45:41.477Z,6.10
2022-09-11T02:48:11.435Z,7.20
2022-09-11T02:50:42.375Z,6.88
2022-09-11T02:53:25.741Z,6.88
2022-09-11T02:56:12.185Z,5.90
2022-09-11T02:59:01.783Z,6.07
2022-09-11T03:01:31.870Z,5.70
2022-09-11T03:03:59.747Z,6.47
2022-09-11T03:06:28.201Z,6.80
2022-09-11T03:08:55.708Z,6.25
2022-09-11T03:11:22.652Z,5.32
2022-09-11T03:13:50.590Z,6.10
2022-09-11T03:16:17.669Z,4.60
2022-09-11T03:18:44.789Z,2.80
2022-09-11T03:21:11.876Z,1.45
2022-09-11T03:23:38.842Z,1.90
2022-09-11T03:26:05.695Z,1.73
2022-09-11T03:28:34.224Z,1.25
2022-09-11T03:31:07.866Z,1.40
2022-09-11T03:33:35.207Z,1.48
2022-09-11T03:36:02.124Z,1.25
2022-09-11T03:38:29.378Z,1.20
2022-09-11T03:40:56.394Z,1.35
2022-09-11T03:43:23.291Z,1.95
2022-09-11T03:45:51.970Z,1.90
2022-09-11T03:48:19.027Z,2.10
2022-09-11T03:50:47.663Z,1.70
2022-09-11T03:53:16.271Z,1.95
2022-09-11T03:55:44.893Z,1.83
2022-09-11T03:58:12.565Z,3.85
2022-09-11T04:00:44.309Z,2.20
2022-09-11T04:03:15.628Z,2.10
2022-09-11T04:05:56.039Z,2.17
2022-09-11T04:08:22.912Z,1.90
2022-09-11T04:10:55.846Z,2.00
2022-09-11T04:13:27.398Z,1.90
2022-09-11T04:15:58.013Z,2.20
2022-09-11T04:18:24.873Z,2.50
2022-09-11T04:20:51.643Z,2.33
2022-09-11T04:23:19.713Z,2.38
2022-09-11T04:25:46.637Z,2.00
2022-09-11T04:28:14.253Z,1.90
2022-09-11T04:30:42.308Z,1.80
2022-09-11T04:33:09.287Z,1.85
2022-09-11T04:35:40.176Z,2.22
2022-09-11T04:38:08.483Z,2.15
2022-09-11T04:40:37.752Z,2.08
2022-09-11T04:43:06.445Z,2.20
2022-09-11T04:45:33.770Z,1.88
2022-09-11T04:48:03.628Z,2.05
2022-09-11T04:50:31.633Z,2.10
2022-09-11T04:53:13.934Z,1.88
2022-09-11T04:55:42.814Z,1.80
2022-09-11T04:58:10.204Z,1.70
2022-09-11T05:00:37.134Z,1.52
2022-09-11T05:03:03.914Z,1.50
2022-09-11T05:05:32.553Z,2.15
2022-09-11T05:07:59.340Z,1.70
2022-09-11T05:10:27.362Z,1.40
2022-09-11T05:12:54.921Z,1.73
2022-09-11T05:15:21.719Z,1.60
2022-09-11T05:17:48.599Z,1.40
2022-09-11T05:20:19.382Z,1.60
2022-09-11T05:22:47.231Z,1.15
2022-09-11T05:25:14.433Z,1.38
2022-09-11T05:27:41.373Z,1.30
2022-09-11T05:30:08.825Z,0.80
2022-09-11T05:32:35.820Z,1.40
2022-09-11T05:35:02.768Z,1.60
2022-09-11T05:37:30.597Z,1.30
2022-09-11T05:39:57.374Z,1.02
2022-09-11T05:42:24.397Z,0.85
2022-09-11T05:44:54.897Z,1.17
2022-09-11T05:47:23.538Z,0.98
2022-09-11T05:49:53.893Z,1.08
2022-09-11T05:52:20.845Z,0.93
2022-09-11T05:54:47.685Z,0.75
2022-09-11T05:57:15.267Z,1.00
2022-09-11T05:59:42.495Z,0.90
2022-09-11T06:02:11.439Z,1.00
2022-09-11T06:04:43.688Z,0.70
2022-09-11T06:07:11.669Z,0.80
2022-09-11T06:09:40.799Z,0.70
2022-09-11T06:12:07.816Z,0.80
2022-09-11T06:14:35.131Z,1.25
2022-09-11T06:17:04.361Z,0.88
2022-09-11T06:19:32.529Z,0.98
2022-09-11T06:22:00.036Z,0.90
2022-09-11T06:24:33.976Z,0.90
2022-09-11T06:27:00.892Z,0.75
2022-09-11T06:29:29.008Z,0.82
2022-09-11T06:31:55.812Z,1.00
2022-09-11T06:34:26.904Z,0.88
2022-09-11T06:36:55.933Z,0.80
2022-09-11T06:39:26.628Z,1.17
2022-09-11T06:41:54.132Z,1.00
2022-09-11T06:44:27.598Z,1.00
2022-09-11T06:46:58.555Z,0.90
2022-09-11T06:49:25.899Z,0.80
2022-09-11T06:52:11.203Z,0.85
2022-09-11T06:54:40.378Z,0.90
2022-09-11T06:57:11.583Z,0.90
2022-09-11T06:59:38.389Z,0.90
2022-09-11T07:02:05.451Z,0.88
2022-09-11T07:04:32.443Z,1.17
2022-09-11T07:06:59.616Z,0.90
2022-09-11T07:09:26.410Z,0.95
2022-09-11T07:11:59.309Z,0.70
2022-09-11T07:14:27.849Z,0.90
2022-09-11T07:17:05.064Z,1.00
2022-09-11T07:19:33.112Z,0.70
2022-09-11T07:21:59.909Z,0.98
2022-09-11T07:24:27.733Z,0.85
2022-09-11T07:26:55.557Z,1.00
2022-09-11T07:29:29.472Z,1.08
2022-09-11T07:31:58.785Z,1.38
2022-09-11T07:34:27.008Z,1.00
2022-09-11T07:36:55.498Z,1.00
2022-09-11T07:39:25.578Z,0.85
2022-09-11T07:42:00.750Z,0.70
2022-09-11T07:44:31.806Z,1.10
2022-09-11T07:46:58.666Z,1.20
2022-09-11T07:49:26.874Z,1.60
2022-09-11T07:51:55.070Z,0.93
2022-09-11T07:54:32.642Z,1.20
2022-09-11T07:56:59.604Z,1.25
2022-09-11T07:59:26.486Z,1.50
2022-09-11T08:01:55.724Z,1.35
2022-09-11T08:04:23.579Z,1.60
2022-09-11T08:06:51.615Z,1.48
2022-09-11T08:09:27.427Z,1.85
2022-09-11T08:11:58.723Z,1.92
2022-09-11T08:14:27.530Z,1.67
2022-09-11T08:16:58.576Z,1.70
2022-09-11T08:19:28.084Z,1.60
2022-09-11T08:21:58.635Z,1.42
2022-09-11T08:24:27.453Z,2.15
2022-09-11T08:26:59.078Z,1.92
2022-09-11T08:29:26.933Z,2.03
2022-09-11T08:31:57.115Z,2.40
2022-09-11T08:34:26.325Z,2.40
2022-09-11T08:36:53.187Z,2.08
2022-09-11T08:39:20.510Z,1.83
2022-09-11T08:41:59.396Z,3.22
2022-09-11T08:44:39.458Z,2.63
2022-09-11T08:47:20.607Z,2.00
2022-09-11T08:49:58.087Z,1.83
2022-09-11T08:52:26.529Z,2.03
2022-09-11T08:54:57.920Z,1.77
2022-09-11T08:57:43.076Z,2.17
2022-09-11T09:00:24.882Z,2.35
2022-09-11T09:03:20.104Z,2.00
2022-09-11T09:06:09.305Z,2.50
2022-09-11T09:08:44.864Z,2.30
2022-09-11T09:11:31.057Z,2.35
2022-09-11T09:14:20.465Z,2.20
2022-09-11T09:16:55.653Z,2.30
2022-09-11T09:19:29.888Z,2.22
2022-09-11T09:22:07.862Z,2.55
2022-09-11T09:24:44.269Z,2.45
2022-09-11T09:27:20.148Z,2.70
2022-09-11T09:29:52.586Z,2.88
2022-09-11T09:32:28.789Z,2.40
2022-09-11T09:35:01.027Z,2.60
2022-09-11T09:37:29.078Z,2.60
2022-09-11T09:39:57.214Z,2.30
2022-09-11T09:42:28.910Z,2.40
2022-09-11T09:45:01.819Z,2.30
2022-09-11T09:47:29.813Z,3.00
2022-09-11T09:49:58.527Z,2.80
2022-09-11T09:52:31.197Z,3.38
2022-09-11T09:55:05.245Z,2.92
2022-09-11T09:57:34.542Z,3.10
2022-09-11T10:00:17.388Z,3.80
2022-09-11T10:02:52.851Z,3.55
2022-09-11T10:05:27.626Z,3.47
2022-09-11T10:08:00.303Z,3.25
2022-09-11T10:10:28.804Z,3.47
2022-09-11T10:13:18.004Z,3.60
2022-09-11T10:15:48.365Z,3.38
2022-09-11T10:18:32.637Z,4.00
2022-09-11T10:21:11.600Z,4.13
2022-09-11T10:23:55.011Z,4.30
2022-09-11T10:26:46.010Z,4.03
2022-09-11T10:29:18.565Z,4.22
2022-09-11T10:31:50.935Z,2.97
2022-09-11T10:34:20.327Z,3.55
2022-09-11T10:37:02.788Z,4.25
2022-09-11T10:39:32.995Z,3.30
2022-09-11T10:42:07.595Z,3.42
2022-09-11T10:44:34.547Z,4.05
2022-09-11T10:47:14.255Z,3.90
2022-09-11T10:49:41.984Z,4.00
2022-09-11T10:52:08.592Z,3.50
2022-09-11T10:54:47.552Z,3.90
2022-09-11T10:57:44.353Z,3.78
2022-09-11T11:00:25.786Z,3.63
2022-09-11T11:03:04.430Z,3.58
2022-09-11T11:05:49.413Z,3.45
2022-09-11T11:08:51.337Z,3.85
2022-09-11T11:11:50.709Z,3.88
2022-09-11T11:14:52.809Z,4.32
2022-09-11T11:17:40.696Z,3.85
2022-09-11T11:20:25.634Z,3.78
2022-09-11T11:23:04.080Z,3.80
2022-09-11T11:25:36.611Z,3.25
2022-09-11T11:28:22.321Z,3.90
2022-09-11T11:34:01.970Z,3.80
2022-09-11T11:36:52.296Z,3.80
2022-09-11T11:39:24.260Z,3.70
2022-09-11T11:42:15.960Z,3.60
2022-09-11T11:44:51.436Z,3.40
2022-09-11T11:47:25.393Z,3.92
2022-09-11T11:50:17.107Z,4.30
2022-09-11T11:53:25.457Z,3.67
2022-09-11T11:56:14.931Z,3.63
2022-09-11T11:58:54.069Z,3.42
2022-09-11T12:01:24.059Z,3.85
2022-09-11T12:04:11.484Z,3.60
2022-09-11T12:06:38.723Z,3.75
2022-09-11T12:09:09.163Z,3.10
2022-09-11T12:11:36.375Z,3.63
2022-09-11T12:14:05.207Z,3.53
2022-09-11T12:16:35.017Z,3.60
2022-09-11T12:19:04.651Z,3.03
2022-09-11T12:21:34.883Z,3.45
2022-09-11T12:24:04.400Z,3.47
2022-09-11T12:26:32.249Z,3.20
2022-09-11T12:29:14.642Z,2.67
2022-09-11T12:31:53.693Z,3.10
2022-09-11T12:34:24.798Z,2.70
2022-09-11T12:36:51.634Z,2.65
2022-09-11T12:39:28.428Z,2.95
2022-09-11T12:42:25.505Z,3.13
2022-09-11T12:44:52.402Z,3.17
2022-09-11T12:47:23.574Z,3.50
2022-09-11T12:50:06.090Z,3.50
2022-09-11T12:52:47.988Z,3.38
2022-09-11T12:55:51.325Z,3.55
2022-09-11T12:58:21.020Z,3.67
2022-09-11T13:00:50.923Z,3.40
2022-09-11T13:03:29.238Z,2.80
2022-09-11T13:06:04.182Z,3.20
2022-09-11T13:08:36.631Z,3.42
2022-09-11T13:11:37.577Z,3.47
2022-09-11T13:14:30.834Z,3.05
2022-09-11T13:17:01.354Z,3.90
2022-09-11T13:19:39.376Z,3.40
2022-09-11T13:22:31.302Z,3.95
2022-09-11T13:25:31.374Z,3.30
2022-09-11T13:28:01.515Z,3.13
2022-09-11T13:30:28.479Z,3.03
2022-09-11T13:33:12.740Z,3.47
2022-09-11T13:35:45.577Z,3.00
2022-09-11T13:38:23.444Z,3.10
2022-09-11T13:41:07.055Z,3.20
2022-09-11T13:43:59.756Z,3.05
2022-09-11T13:46:54.983Z,2.83
2022-09-11T13:49:39.280Z,2.80
2022-09-11T13:52:08.136Z,3.30
2022-09-11T13:54:43.403Z,3.10
2022-09-11T13:57:15.205Z,3.08
2022-09-11T13:59:46.344Z,3.20
2022-09-11T14:02:35.042Z,3.00
2022-09-11T14:05:28.227Z,3.58
2022-09-11T14:07:58.699Z,3.40
2022-09-11T14:10:39.545Z,3.20
2022-09-11T14:13:15.223Z,3.53
2022-09-11T14:15:47.841Z,3.50
2022-09-11T14:18:29.310Z,3.67
2022-09-11T14:20:59.533Z,3.60
2022-09-11T14:23:28.682Z,3.70
2022-09-11T14:26:16.040Z,3.15
2022-09-11T14:28:59.756Z,3.40
2022-09-11T14:31:31.469Z,3.63
2022-09-11T14:34:18.006Z,3.28
2022-09-11T14:36:59.330Z,3.42
2022-09-11T14:39:39.231Z,3.72
2022-09-11T14:42:14.965Z,3.90
2022-09-11T14:44:42.524Z,3.63
2022-09-11T14:47:25.046Z,4.57
2022-09-11T14:49:54.421Z,4.10
2022-09-11T14:52:25.927Z,3.83
2022-09-11T14:54:53.534Z,3.80
2022-09-11T14:57:25.281Z,4.15
2022-09-11T14:59:55.568Z,3.55
2022-09-11T15:02:25.485Z,4.07
2022-09-11T15:04:57.085Z,3.65
2022-09-11T15:07:25.322Z,4.50
2022-09-11T15:09:53.668Z,5.07
2022-09-11T15:12:22.054Z,4.85
2022-09-11T15:14:57.092Z,4.97
2022-09-11T15:17:28.243Z,5.10
2022-09-11T15:19:58.125Z,5.28
2022-09-11T15:22:26.079Z,5.20
2022-09-11T15:24:56.213Z,5.57
2022-09-11T15:27:25.318Z,5.38
2022-09-11T15:29:53.352Z,5.70
2022-09-11T15:32:21.355Z,6.13
2022-09-11T15:34:48.250Z,5.63
2022-09-11T15:37:17.131Z,6.60
2022-09-11T15:39:44.421Z,5.97
2022-09-11T15:42:12.709Z,7.07
2022-09-11T15:44:39.617Z,6.75
2022-09-11T15:47:07.070Z,6.82
2022-09-11T15:49:40.438Z,6.97
2022-09-11T15:52:07.591Z,7.05
2022-09-11T15:54:34.473Z,6.32
2022-09-11T15:57:01.358Z,7.53
2022-09-11T15:59:50.096Z,8.50
2022-09-11T16:02:17.124Z,7.68
2022-09-11T16:04:44.095Z,7.75
2022-09-11T16:07:10.966Z,7.85
2022-09-11T16:09:38.370Z,8.00
2022-09-11T16:12:05.903Z,7.63
2022-09-11T16:14:38.578Z,9.90
2022-09-11T16:17:07.660Z,11.40
2022-09-11T16:19:35.790Z,10.27
2022-09-11T16:22:04.901Z,11.57
2022-09-11T16:24:37.509Z,12.48
2022-09-11T16:27:07.517Z,12.95
2022-09-11T16:30:09.048Z,12.38
2022-09-11T16:32:28.655Z,12.38
2022-09-11T16:34:57.423Z,12.63
2022-09-11T16:37:24.749Z,10.45
2022-09-11T16:39:51.814Z,11.02
2022-09-11T16:42:21.277Z,10.80
2022-09-11T16:44:49.785Z,9.85
2022-09-11T16:47:17.969Z,9.02
2022-09-11T16:52:32.342Z,9.40
2022-09-11T16:54:59.591Z,9.15
2022-09-11T16:57:29.402Z,8.52
2022-09-11T16:59:56.417Z,9.23
2022-09-11T17:02:25.356Z,10.27
2022-09-11T17:04:56.779Z,9.95
2022-09-11T17:07:25.952Z,9.95
2022-09-11T17:09:52.744Z,8.52
2022-09-11T17:12:25.834Z,9.13
2022-09-11T17:14:52.660Z,10.80
2022-09-11T17:17:20.512Z,10.82
2022-09-11T17:19:51.802Z,11.02
2022-09-11T17:22:19.916Z,10.80
2022-09-11T17:24:49.188Z,10.45
2022-09-11T17:27:16.301Z,10.95
2022-09-11T17:29:44.742Z,11.30
2022-09-11T17:32:28.364Z,10.77
2022-09-11T17:34:58.716Z,10.57
2022-09-11T17:37:28.260Z,9.75
2022-09-11T17:39:57.610Z,10.35
2022-09-11T17:42:26.799Z,8.60
2022-09-11T17:44:53.848Z,7.18
2022-09-11T17:47:20.891Z,8.27
2022-09-11T17:49:50.141Z,7.90
2022-09-11T17:52:20.490Z,7.13
2022-09-11T17:54:47.681Z,6.85
2022-09-11T17:57:15.794Z,7.18
2022-09-11T17:59:44.185Z,6.95
2022-09-11T18:02:23.952Z,6.55
2022-09-11T18:04:50.937Z,7.93
2022-09-11T18:07:18.962Z,6.97
2022-09-11T18:09:45.964Z,7.80
2022-09-11T18:12:12.768Z,7.55
2022-09-11T18:14:43.054Z,8.00
2022-09-11T18:17:10.388Z,7.70
2022-09-11T18:19:40.190Z,6.88
2022-09-11T18:22:07.243Z,7.30
2022-09-11T18:24:34.129Z,6.68
2022-09-11T18:27:01.224Z,7.15
2022-09-11T18:29:30.261Z,6.90
2022-09-11T18:31:57.742Z,7.97
2022-09-11T18:34:26.965Z,7.20
2022-09-11T18:36:54.093Z,7.60
2022-09-11T18:39:21.332Z,8.48
2022-09-11T18:41:49.716Z,8.10
2022-09-11T18:44:20.034Z,10.27
2022-09-11T18:46:47.769Z,8.77
2022-09-11T18:49:15.708Z,8.73
2022-09-11T18:51:43.087Z,10.15
2022-09-11T18:54:21.579Z,9.30
2022-09-11T18:56:50.066Z,10.02
2022-09-11T18:59:16.988Z,11.15
2022-09-11T19:01:44.115Z,12.48
2022-09-11T19:04:12.591Z,12.57
2022-09-11T19:06:40.377Z,14.45
2022-09-11T19:09:10.505Z,15.02
2022-09-11T19:11:37.975Z,14.88
2022-09-11T19:14:07.116Z,15.73
2022-09-11T19:16:43.529Z,15.75
2022-09-11T19:19:10.882Z,16.88
2022-09-11T19:21:40.561Z,17.45
2022-09-11T19:24:10.400Z,17.30
2022-09-11T19:26:39.915Z,18.85
2022-09-11T19:29:08.933Z,21.15
2022-09-11T19:31:39.419Z,22.23
2022-09-11T19:34:09.814Z,22.17
2022-09-11T19:36:41.211Z,23.83
2022-09-11T19:39:11.553Z,23.08
2022-09-11T19:41:42.421Z,22.60
2022-09-11T19:44:13.330Z,21.95
2022-09-11T19:46:41.932Z,21.30
2022-09-11T19:49:15.405Z,18.90
2022-09-11T19:51:45.192Z,19.13
2022-09-11T19:54:13.665Z,17.08
2022-09-11T19:56:44.508Z,16.20
2022-09-11T19:59:14.569Z,17.58
2022-09-11T20:02:02.217Z,15.05
2022-09-11T20:04:29.501Z,15.07
2022-09-11T20:06:57.658Z,15.20
2022-09-11T20:09:31.350Z,15.18
2022-09-11T20:12:37.097Z,13.38
2022-09-11T20:15:05.059Z,14.93
2022-09-11T20:17:35.028Z,14.32
2022-09-11T20:20:02.446Z,14.38
2022-09-11T20:22:54.807Z,12.88
2022-09-11T20:25:22.950Z,13.23
2022-09-11T20:28:16.258Z,13.20
2022-09-11T20:30:43.908Z,13.35
2022-09-11T20:33:16.097Z,12.40
2022-09-11T20:35:48.371Z,12.43
2022-09-11T20:38:22.043Z,11.50
2022-09-11T20:41:14.450Z,11.80
2022-09-11T20:44:07.490Z,11.43
2022-09-11T20:46:46.895Z,11.30
2022-09-11T20:49:14.027Z,11.32
2022-09-11T20:51:40.978Z,12.35
2022-09-11T20:54:08.057Z,12.20
2022-09-11T20:56:35.420Z,11.07
2022-09-11T20:59:02.318Z,11.35
2022-09-11T21:01:33.818Z,12.52
2022-09-11T21:04:02.723Z,11.77
2022-09-11T21:06:32.558Z,11.50
2022-09-11T21:09:02.781Z,11.88
2022-09-11T21:11:31.042Z,13.25
2022-09-11T21:13:58.896Z,12.73
2022-09-11T21:16:25.795Z,13.55
2022-09-11T21:18:54.858Z,13.10
2022-09-11T21:21:23.117Z,13.43
2022-09-11T21:23:50.094Z,12.32
2022-09-11T21:26:17.658Z,13.15
2022-09-11T21:28:44.602Z,12.68
2022-09-11T21:31:11.920Z,13.13
2022-09-11T21:33:39.383Z,14.07
2022-09-11T21:36:07.257Z,13.77
2022-09-11T21:38:34.377Z,14.10
2022-09-11T21:41:04.238Z,12.95
2022-09-11T21:43:35.690Z,13.32
2022-09-11T21:46:05.601Z,13.38
2022-09-11T21:48:35.943Z,13.00
2022-09-11T21:51:08.325Z,21.02
2022-09-11T21:53:35.387Z,14.15
2022-09-11T21:56:02.518Z,14.07
2022-09-11T21:58:29.489Z,14.68
2022-09-11T22:00:57.061Z,14.55
2022-09-11T22:03:24.259Z,13.20
2022-09-11T22:05:51.384Z,12.93
2022-09-11T22:08:19.566Z,12.55
2022-09-11T22:10:49.765Z,12.65
2022-09-11T22:13:19.197Z,12.98
2022-09-11T22:15:48.569Z,12.10
2022-09-11T22:18:16.796Z,13.57
2022-09-11T22:20:43.820Z,12.50
2022-09-11T22:23:47.877Z,13.27
2022-09-11T22:26:18.327Z,12.65
2022-09-11T22:28:45.284Z,11.77
2022-09-11T22:31:18.228Z,12.43
2022-09-11T22:33:45.745Z,13.02
2022-09-11T22:36:21.285Z,12.30
2022-09-11T22:38:49.734Z,12.52
2022-09-11T22:41:17.477Z,12.65
2022-09-11T22:43:44.959Z,12.70
2022-09-11T22:46:12.669Z,11.85
2022-09-11T22:48:39.959Z,13.10
2022-09-11T22:51:06.731Z,13.48
2022-09-11T22:53:33.583Z,12.32
2022-09-11T22:56:00.430Z,13.23
2022-09-11T22:58:29.239Z,12.50
2022-09-11T23:00:56.673Z,12.98
2022-09-11T23:03:23.503Z,13.75
2022-09-11T23:06:17.473Z,13.80
2022-09-11T23:08:47.038Z,13.07
2022-09-11T23:11:17.027Z,12.88
2022-09-11T23:13:44.629Z,12.98
2022-09-11T23:16:13.443Z,13.13
2022-09-11T23:18:41.312Z,12.75
2022-09-11T23:21:08.470Z,13.68
2022-09-11T23:23:40.917Z,13.00
2022-09-11T23:26:09.646Z,12.90
2022-09-11T23:28:36.728Z,13.23
2022-09-11T23:31:03.862Z,13.77
2022-09-11T23:33:31.277Z,12.30
2022-09-11T23:35:58.121Z,12.63
2022-09-11T23:38:24.884Z,12.48
2022-09-11T23:40:51.743Z,13.00
2022-09-11T23:43:18.445Z,12.30
2022-09-11T23:45:45.361Z,12.88
2022-09-11T23:48:12.109Z,12.13
2022-09-11T23:50:39.201Z,11.73
2022-09-11T23:53:05.955Z,13.55
2022-09-11T23:55:32.736Z,11.90
2022-09-11T23:58:01.113Z,11.60
